createdAt,value
2023-10-09T00:00:33.732Z,7.10
2023-10-09T00:03:02.399Z,8.07
2023-10-09T00:05:47.076Z,8.47
2023-10-09T00:08:20.489Z,7.77
2023-10-09T00:10:54.383Z,7.89
2023-10-09T00:13:30.714Z,7.81
2023-10-09T00:16:09.363Z,7.28
2023-10-09T00:18:37.381Z,7.40
2023-10-09T00:21:13.890Z,7.03
2023-10-09T00:23:42.255Z,6.77
2023-10-09T00:26:12.192Z,7.67
2023-10-09T00:28:52.390Z,7.19
2023-10-09T00:31:31.189Z,8.00
2023-10-09T00:34:04.753Z,7.24
2023-10-09T00:36:34.244Z,7.31
2023-10-09T00:39:13.268Z,7.77
2023-10-09T00:41:42.801Z,8.18
2023-10-09T00:44:12.286Z,7.89
2023-10-09T00:46:43.647Z,7.75
2023-10-09T00:49:12.365Z,7.02
2023-10-09T00:51:57.653Z,7.44
2023-10-09T00:54:29.702Z,7.77
2023-10-09T00:57:07.731Z,7.67
2023-10-09T00:59:39.496Z,7.69
2023-10-09T01:02:08.078Z,7.75
2023-10-09T01:04:42.093Z,8.08
2023-10-09T01:07:16.906Z,7.83
2023-10-09T01:09:46.074Z,7.09
2023-10-09T01:12:19.166Z,8.25
2023-10-09T01:14:53.945Z,7.83
2023-10-09T01:17:36.764Z,7.99
2023-10-09T01:20:15.300Z,8.38
2023-10-09T01:22:45.338Z,8.10
2023-10-09T01:25:14.694Z,8.26
2023-10-09T01:27:45.245Z,7.96
2023-10-09T01:30:15.178Z,7.29
2023-10-09T01:32:44.772Z,7.97
2023-10-09T01:35:21.699Z,8.43
2023-10-09T01:37:52.142Z,7.49
2023-10-09T01:40:36.903Z,7.94
2023-10-09T01:43:05.872Z,8.49
2023-10-09T01:45:43.336Z,8.25
2023-10-09T01:48:13.472Z,7.54
2023-10-09T01:50:43.593Z,7.78
2023-10-09T01:53:18.240Z,8.33
2023-10-09T01:55:47.633Z,7.10
2023-10-09T01:58:25.566Z,7.15
2023-10-09T02:00:56.348Z,7.01
2023-10-09T02:03:30.495Z,7.25
2023-10-09T02:06:01.079Z,7.48
2023-10-09T02:08:36.682Z,7.41
2023-10-09T02:11:08.330Z,7.40
2023-10-09T02:13:36.753Z,7.42
2023-10-09T02:16:16.009Z,7.31
2023-10-09T02:18:55.093Z,7.70
2023-10-09T02:21:33.843Z,7.55
2023-10-09T02:24:06.743Z,7.42
2023-10-09T02:27:02.190Z,7.22
2023-10-09T02:29:30.335Z,7.50
2023-10-09T02:32:02.381Z,6.91
2023-10-09T02:34:30.920Z,7.09
2023-10-09T02:37:05.440Z,6.82
2023-10-09T02:39:38.199Z,7.54
2023-10-09T02:42:20.504Z,8.01
2023-10-09T02:44:50.848Z,7.76
2023-10-09T02:47:26.040Z,7.59
2023-10-09T02:50:01.733Z,7.36
2023-10-09T02:52:34.782Z,8.38
2023-10-09T02:55:07.067Z,8.31
2023-10-09T02:57:38.497Z,7.38
2023-10-09T03:00:10.750Z,6.51
2023-10-09T03:02:41.338Z,7.72
2023-10-09T03:05:13.088Z,7.74
2023-10-09T03:07:41.581Z,7.12
2023-10-09T03:10:10.946Z,8.46
2023-10-09T03:12:40.790Z,7.58
2023-10-09T03:15:10.596Z,6.84
2023-10-09T03:17:39.619Z,7.71
2023-10-09T03:20:13.497Z,7.25
2023-10-09T03:22:42.510Z,7.14
2023-10-09T03:25:12.768Z,7.77
2023-10-09T03:27:46.062Z,8.39
2023-10-09T03:30:23.921Z,8.78
2023-10-09T03:32:53.910Z,7.67
2023-10-09T03:35:29.024Z,7.92
2023-10-09T03:38:01.884Z,6.92
2023-10-09T03:40:33.170Z,7.91
2023-10-09T03:43:02.637Z,7.31
2023-10-09T03:45:32.586Z,7.26
2023-10-09T03:48:06.227Z,7.00
2023-10-09T03:50:38.534Z,7.88
2023-10-09T03:53:09.020Z,7.57
2023-10-09T03:55:40.670Z,8.63
2023-10-09T03:58:12.805Z,8.87
2023-10-09T04:00:46.596Z,7.61
2023-10-09T04:03:16.282Z,7.40
2023-10-09T04:05:46.016Z,7.19
2023-10-09T04:08:21.185Z,6.81
2023-10-09T04:10:56.751Z,7.30
2023-10-09T04:13:34.587Z,7.89
2023-10-09T04:16:11.857Z,8.59
2023-10-09T04:18:41.186Z,7.98
2023-10-09T04:21:20.289Z,8.78
2023-10-09T04:24:06.884Z,7.97
2023-10-09T04:26:36.050Z,7.06
2023-10-09T04:29:06.526Z,8.21
2023-10-09T04:31:38.327Z,8.28
2023-10-09T04:34:29.566Z,7.20
2023-10-09T04:37:18.214Z,7.19
2023-10-09T04:39:48.877Z,7.46
2023-10-09T04:42:21.299Z,8.67
2023-10-09T04:45:16.430Z,8.05
2023-10-09T04:48:02.054Z,7.23
2023-10-09T04:50:46.853Z,8.04
2023-10-09T04:53:26.217Z,7.66
2023-10-09T04:55:58.628Z,8.26
2023-10-09T04:58:33.208Z,8.32
2023-10-09T05:01:12.891Z,7.79
2023-10-09T05:03:46.818Z,8.30
2023-10-09T05:06:33.404Z,8.07
2023-10-09T05:09:09.902Z,8.44
2023-10-09T05:11:51.859Z,7.55
2023-10-09T05:14:27.870Z,8.22
2023-10-09T05:16:56.531Z,8.38
2023-10-09T05:19:34.678Z,8.40
2023-10-09T05:22:08.785Z,26.25
2023-10-09T05:24:46.794Z,66.59
2023-10-09T05:27:18.841Z,62.87
2023-10-09T05:30:00.408Z,44.82
2023-10-09T05:32:36.327Z,13.53
2023-10-09T05:35:16.907Z,14.12
2023-10-09T05:37:44.485Z,23.75
2023-10-09T05:40:27.997Z,11.32
2023-10-09T05:43:06.869Z,8.80
2023-10-09T05:45:52.568Z,8.84
2023-10-09T05:48:35.988Z,9.18
2023-10-09T05:51:20.590Z,8.45
2023-10-09T05:54:13.072Z,8.71
2023-10-09T05:56:58.721Z,9.12
2023-10-09T05:59:44.123Z,9.05
2023-10-09T06:02:55.657Z,8.03
2023-10-09T06:05:52.410Z,9.93
2023-10-09T06:08:25.933Z,18.77
2023-10-09T06:11:07.076Z,12.61
2023-10-09T06:13:46.872Z,9.77
2023-10-09T06:16:36.444Z,8.63
2023-10-09T06:19:13.593Z,8.36
2023-10-09T06:22:02.025Z,8.40
2023-10-09T06:24:42.819Z,7.28
2023-10-09T06:27:17.055Z,7.65
2023-10-09T06:29:59.780Z,7.21
2023-10-09T06:32:38.413Z,7.72
2023-10-09T06:35:19.604Z,7.65
2023-10-09T06:38:15.331Z,7.58
2023-10-09T06:41:18.272Z,7.23
2023-10-09T06:43:48.979Z,7.17
2023-10-09T06:46:35.528Z,7.08
2023-10-09T06:49:23.585Z,7.17
2023-10-09T06:51:56.778Z,10.62
2023-10-09T06:54:28.213Z,10.52
2023-10-09T06:57:13.669Z,7.12
2023-10-09T07:00:05.684Z,7.33
2023-10-09T07:02:47.118Z,7.29
2023-10-09T07:05:18.740Z,7.14
2023-10-09T07:07:56.422Z,7.72
2023-10-09T07:10:33.773Z,7.95
2023-10-09T07:13:03.444Z,7.74
2023-10-09T07:15:50.087Z,7.83
2023-10-09T07:18:24.249Z,6.85
2023-10-09T07:21:02.685Z,7.33
2023-10-09T07:23:34.063Z,8.47
2023-10-09T07:26:24.693Z,8.99
2023-10-09T07:29:02.190Z,9.64
2023-10-09T07:31:40.764Z,8.57
2023-10-09T07:37:05.835Z,8.83
2023-10-09T07:39:37.249Z,7.70
2023-10-09T07:42:21.353Z,8.76
2023-10-09T07:44:55.418Z,8.51
2023-10-09T07:47:44.187Z,6.48
2023-10-09T07:50:13.217Z,6.24
2023-10-09T07:52:46.171Z,6.86
2023-10-09T07:55:27.401Z,7.33
2023-10-09T07:57:55.707Z,9.57
2023-10-09T08:00:59.455Z,7.91
2023-10-09T08:03:33.835Z,7.43
2023-10-09T08:06:29.151Z,5.59
2023-10-09T08:09:20.139Z,5.89
2023-10-09T08:12:09.238Z,7.05
2023-10-09T08:14:49.693Z,6.86
2023-10-09T08:17:17.338Z,6.93
2023-10-09T08:19:55.657Z,6.66
2023-10-09T08:22:38.763Z,6.98
2023-10-09T08:25:09.278Z,7.83
2023-10-09T08:27:55.741Z,6.38
2023-10-09T08:30:42.128Z,6.70
2023-10-09T08:36:06.666Z,6.88
2023-10-09T08:38:37.632Z,6.68
2023-10-09T08:41:22.267Z,7.53
2023-10-09T08:43:55.058Z,10.45
2023-10-09T08:46:27.935Z,5.88
2023-10-09T08:48:57.496Z,5.81
2023-10-09T08:51:27.043Z,7.67
2023-10-09T08:53:55.886Z,7.74
2023-10-09T08:56:25.402Z,8.40
2023-10-09T08:58:55.373Z,7.90
2023-10-09T09:01:26.104Z,7.05
2023-10-09T09:03:57.209Z,6.63
2023-10-09T09:06:25.516Z,6.17
2023-10-09T09:08:56.457Z,4.53
2023-10-09T09:11:26.292Z,6.61
2023-10-09T09:14:05.787Z,7.95
2023-10-09T09:16:36.577Z,6.65
2023-10-09T09:19:18.659Z,5.65
2023-10-09T09:21:55.413Z,6.02
2023-10-09T09:24:32.334Z,5.86
2023-10-09T09:27:21.747Z,6.25
2023-10-09T09:29:55.544Z,6.64
2023-10-09T09:32:36.754Z,7.44
2023-10-09T09:35:06.890Z,6.10
2023-10-09T09:37:51.639Z,6.23
2023-10-09T09:40:33.336Z,6.32
2023-10-09T09:43:07.592Z,6.08
2023-10-09T09:45:38.145Z,7.30
2023-10-09T09:48:08.108Z,6.28
2023-10-09T09:50:44.497Z,6.14
2023-10-09T09:53:17.646Z,6.09
2023-10-09T09:55:57.524Z,7.01
2023-10-09T09:58:33.988Z,5.89
2023-10-09T10:01:17.229Z,6.61
2023-10-09T10:03:51.973Z,7.49
2023-10-09T10:06:22.493Z,7.73
2023-10-09T10:08:52.587Z,7.33
2023-10-09T10:11:46.594Z,6.73
2023-10-09T10:14:30.301Z,6.70
2023-10-09T10:17:19.867Z,9.35
2023-10-09T10:20:27.290Z,9.72
2023-10-09T10:23:20.641Z,9.52
2023-10-09T10:25:51.586Z,11.17
2023-10-09T10:28:39.427Z,12.71
2023-10-09T10:31:10.732Z,12.44
2023-10-09T10:34:11.730Z,9.28
2023-10-09T10:36:45.423Z,7.05
2023-10-09T10:39:22.247Z,6.31
2023-10-09T10:41:57.014Z,6.86
2023-10-09T10:44:43.115Z,7.20
2023-10-09T10:47:26.202Z,7.53
2023-10-09T10:50:00.384Z,7.52
2023-10-09T10:52:43.392Z,7.46
2023-10-09T10:55:19.320Z,8.48
2023-10-09T10:58:01.831Z,8.06
2023-10-09T11:00:48.301Z,7.53
2023-10-09T11:03:25.131Z,7.56
2023-10-09T11:05:53.661Z,7.00
2023-10-09T11:08:32.117Z,8.01
2023-10-09T11:11:16.607Z,8.06
2023-10-09T11:13:58.265Z,8.44
2023-10-09T11:16:49.437Z,8.75
2023-10-09T11:19:36.134Z,8.68
2023-10-09T11:22:21.983Z,8.81
2023-10-09T11:25:12.401Z,9.00
2023-10-09T11:27:51.272Z,8.94
2023-10-09T11:30:33.668Z,7.96
2023-10-09T11:33:15.852Z,9.28
2023-10-09T11:35:59.221Z,9.89
2023-10-09T11:38:27.257Z,10.01
2023-10-09T11:41:14.936Z,10.35
2023-10-09T11:43:58.580Z,11.45
2023-10-09T11:46:46.471Z,12.62
2023-10-09T11:49:27.853Z,12.08
2023-10-09T11:52:24.858Z,12.29
2023-10-09T11:54:52.836Z,13.18
2023-10-09T11:57:29.919Z,11.63
2023-10-09T11:59:58.174Z,11.00
2023-10-09T12:02:25.498Z,12.53
2023-10-09T12:04:56.859Z,11.44
2023-10-09T12:07:28.843Z,11.33
2023-10-09T12:09:58.324Z,12.45
2023-10-09T12:12:27.733Z,13.59
2023-10-09T12:14:55.901Z,13.04
2023-10-09T12:17:27.535Z,11.35
2023-10-09T12:19:57.467Z,12.09
2023-10-09T12:22:28.498Z,13.36
2023-10-09T12:24:57.573Z,11.68
2023-10-09T12:27:25.788Z,12.52
2023-10-09T12:29:53.952Z,11.22
2023-10-09T12:32:22.061Z,10.78
2023-10-09T12:34:51.968Z,11.25
2023-10-09T12:37:21.854Z,11.21
2023-10-09T12:39:56.818Z,12.25
2023-10-09T12:42:24.844Z,13.23
2023-10-09T12:44:52.871Z,11.95
2023-10-09T12:47:21.015Z,12.29
2023-10-09T12:49:50.333Z,10.98
2023-10-09T12:52:18.371Z,11.04
2023-10-09T12:54:48.014Z,11.74
2023-10-09T12:57:17.518Z,12.00
2023-10-09T12:59:46.605Z,10.28
2023-10-09T13:02:29.342Z,10.35
2023-10-09T13:04:58.396Z,11.41
2023-10-09T13:07:26.685Z,9.96
2023-10-09T13:10:08.825Z,10.16
2023-10-09T13:12:42.017Z,9.33
2023-10-09T13:15:11.337Z,9.20
2023-10-09T13:17:40.395Z,8.54
2023-10-09T13:20:14.020Z,8.78
2023-10-09T13:22:43.198Z,9.33
2023-10-09T13:25:31.343Z,9.50
2023-10-09T13:28:04.748Z,10.25
2023-10-09T13:30:40.411Z,9.69
2023-10-09T13:33:09.920Z,9.86
2023-10-09T13:35:42.100Z,8.16
2023-10-09T13:38:11.205Z,8.09
2023-10-09T13:40:39.479Z,8.94
2023-10-09T13:43:17.531Z,7.51
2023-10-09T13:45:50.854Z,7.54
2023-10-09T13:48:22.063Z,8.22
2023-10-09T13:50:50.299Z,8.82
2023-10-09T13:53:18.925Z,8.28
2023-10-09T13:55:48.268Z,8.63
2023-10-09T13:58:24.545Z,10.16
2023-10-09T14:00:54.569Z,8.83
2023-10-09T14:03:25.707Z,9.54
2023-10-09T14:05:58.241Z,9.31
2023-10-09T14:08:27.421Z,9.88
2023-10-09T14:10:55.774Z,9.29
2023-10-09T14:13:29.467Z,9.64
2023-10-09T14:16:00.973Z,10.12
2023-10-09T14:18:31.019Z,9.19
2023-10-09T14:21:05.637Z,10.18
2023-10-09T14:23:35.618Z,10.16
2023-10-09T14:26:03.866Z,10.09
2023-10-09T14:28:33.255Z,10.37
2023-10-09T14:31:02.189Z,17.09
2023-10-09T14:33:37.410Z,8.01
2023-10-09T14:36:06.933Z,8.08
2023-10-09T14:38:39.825Z,7.91
2023-10-09T14:41:12.754Z,9.40
2023-10-09T14:43:42.939Z,9.29
2023-10-09T14:46:15.904Z,8.22
2023-10-09T14:48:47.061Z,9.50
2023-10-09T14:51:15.448Z,8.81
2023-10-09T14:53:43.406Z,8.91
2023-10-09T14:58:47.943Z,9.07
2023-10-09T15:01:19.737Z,7.96
2023-10-09T15:03:49.019Z,9.69
2023-10-09T15:06:18.942Z,8.36
2023-10-09T15:08:47.753Z,9.32
2023-10-09T15:11:16.675Z,14.83
2023-10-09T15:13:46.043Z,11.37
2023-10-09T15:16:15.151Z,8.29
2023-10-09T15:18:43.198Z,7.29
2023-10-09T15:21:11.985Z,7.91
2023-10-09T15:23:40.016Z,7.44
2023-10-09T15:26:08.900Z,8.62
2023-10-09T15:28:37.120Z,8.50
2023-10-09T15:31:12.228Z,8.44
2023-10-09T15:33:40.980Z,8.79
2023-10-09T15:36:14.050Z,8.26
2023-10-09T15:38:42.524Z,8.20
2023-10-09T15:41:10.720Z,9.01
2023-10-09T15:43:39.850Z,8.27
2023-10-09T15:46:14.071Z,7.48
2023-10-09T15:48:42.110Z,7.94
2023-10-09T15:51:15.030Z,7.76
2023-10-09T15:53:44.334Z,8.46
2023-10-09T15:56:14.087Z,9.21
2023-10-09T15:58:44.111Z,8.60
2023-10-09T16:01:15.829Z,7.16
2023-10-09T16:03:45.061Z,7.75
2023-10-09T16:06:13.376Z,8.06
2023-10-09T16:08:42.969Z,8.04
2023-10-09T16:11:12.460Z,7.97
2023-10-09T16:13:42.263Z,7.26
2023-10-09T16:16:10.233Z,7.80
2023-10-09T16:18:40.377Z,8.78
2023-10-09T16:21:13.299Z,9.25
2023-10-09T16:23:43.312Z,7.79
2023-10-09T16:26:11.598Z,8.36
2023-10-09T16:28:41.307Z,10.77
2023-10-09T16:31:20.145Z,8.17
2023-10-09T16:34:08.674Z,7.76
2023-10-09T16:36:37.337Z,6.95
2023-10-09T16:39:06.087Z,7.71
2023-10-09T16:41:41.138Z,7.27
2023-10-09T16:44:11.397Z,9.62
2023-10-09T16:46:41.024Z,12.19
2023-10-09T16:49:12.619Z,7.48
2023-10-09T16:51:41.120Z,6.52
2023-10-09T16:54:15.948Z,6.19
2023-10-09T16:56:44.711Z,6.73
2023-10-09T16:59:15.426Z,6.89
2023-10-09T17:01:45.601Z,7.00
2023-10-09T17:04:18.147Z,6.87
2023-10-09T17:06:48.231Z,7.71
2023-10-09T17:09:16.522Z,7.83
2023-10-09T17:11:44.751Z,8.01
2023-10-09T17:14:17.109Z,8.10
2023-10-09T17:16:46.539Z,11.15
2023-10-09T17:19:16.190Z,15.47
2023-10-09T17:21:44.640Z,10.19
2023-10-09T17:24:13.651Z,7.43
2023-10-09T17:26:42.875Z,6.58
2023-10-09T17:29:12.184Z,6.96
2023-10-09T17:31:41.038Z,7.12
2023-10-09T17:34:09.333Z,7.19
2023-10-09T17:36:38.719Z,7.47
2023-10-09T17:39:08.063Z,8.20
2023-10-09T17:41:37.031Z,8.41
2023-10-09T17:44:06.155Z,8.02
2023-10-09T17:46:34.280Z,7.64
2023-10-09T17:49:02.654Z,7.80
2023-10-09T17:51:30.762Z,7.82
2023-10-09T17:54:00.247Z,7.38
2023-10-09T17:56:28.361Z,7.53
2023-10-09T17:58:56.400Z,7.54
2023-10-09T18:01:28.939Z,8.42
2023-10-09T18:06:28.453Z,11.85
2023-10-09T18:08:56.683Z,7.77
2023-10-09T18:11:26.031Z,6.09
2023-10-09T18:13:54.951Z,6.33
2023-10-09T18:16:23.738Z,6.63
2023-10-09T18:18:54.089Z,6.60
2023-10-09T18:21:22.153Z,9.00
2023-10-09T18:23:50.268Z,14.34
2023-10-09T18:26:19.790Z,8.63
2023-10-09T18:28:49.961Z,7.19
2023-10-09T18:31:18.802Z,7.20
2023-10-09T18:33:47.516Z,6.60
2023-10-09T18:36:18.865Z,5.99
2023-10-09T18:38:52.030Z,6.56
2023-10-09T18:41:22.985Z,6.78
2023-10-09T18:43:55.578Z,6.79
2023-10-09T18:46:23.978Z,6.55
2023-10-09T18:48:52.887Z,6.89
2023-10-09T18:51:20.961Z,7.97
2023-10-09T18:53:49.265Z,11.66
2023-10-09T18:56:21.092Z,7.55
2023-10-09T18:58:51.180Z,8.71
2023-10-09T19:01:20.731Z,8.02
2023-10-09T19:03:50.547Z,6.36
2023-10-09T19:06:19.661Z,6.42
2023-10-09T19:08:49.397Z,6.97
2023-10-09T19:11:24.486Z,7.07
2023-10-09T19:13:53.199Z,8.33
2023-10-09T19:16:23.256Z,6.96
2023-10-09T19:18:51.403Z,6.56
2023-10-09T19:21:19.942Z,6.81
2023-10-09T19:23:48.314Z,6.70
2023-10-09T19:26:18.490Z,6.42
2023-10-09T19:28:49.023Z,6.13
2023-10-09T19:31:18.120Z,9.08
2023-10-09T19:33:47.908Z,7.23
2023-10-09T19:36:16.291Z,5.78
2023-10-09T19:38:51.196Z,6.04
2023-10-09T19:41:20.959Z,5.77
2023-10-09T19:43:49.405Z,5.89
2023-10-09T19:46:18.304Z,6.06
2023-10-09T19:48:50.644Z,6.17
2023-10-09T19:51:21.393Z,6.37
2023-10-09T19:53:49.267Z,6.92
2023-10-09T19:56:20.829Z,9.81
2023-10-09T19:58:48.818Z,12.26
2023-10-09T20:01:17.121Z,9.61
2023-10-09T20:03:45.247Z,6.13
2023-10-09T20:06:16.580Z,5.84
2023-10-09T20:08:44.647Z,5.89
2023-10-09T20:11:14.020Z,6.57
2023-10-09T20:13:44.094Z,6.94
2023-10-09T20:16:12.792Z,6.70
2023-10-09T20:18:43.933Z,8.19
2023-10-09T20:21:15.334Z,7.12
2023-10-09T20:23:44.231Z,5.80
2023-10-09T20:26:16.300Z,6.03
2023-10-09T20:28:46.589Z,5.96
2023-10-09T20:31:15.765Z,6.29
2023-10-09T20:33:44.729Z,6.11
2023-10-09T20:36:19.908Z,7.48
2023-10-09T20:38:49.799Z,6.54
2023-10-09T20:41:19.800Z,8.65
2023-10-09T20:43:48.474Z,6.97
2023-10-09T20:46:17.531Z,5.69
2023-10-09T20:48:46.947Z,5.91
2023-10-09T20:51:17.960Z,6.96
2023-10-09T20:53:47.244Z,6.51
2023-10-09T20:56:15.488Z,6.47
2023-10-09T20:58:44.366Z,6.35
2023-10-09T21:01:17.385Z,6.82
2023-10-09T21:03:47.776Z,6.58
2023-10-09T21:06:18.396Z,6.97
2023-10-09T21:08:46.643Z,6.84
2023-10-09T21:11:14.716Z,6.67
2023-10-09T21:13:46.167Z,6.66
2023-10-09T21:16:15.424Z,6.77
2023-10-09T21:18:45.127Z,6.23
2023-10-09T21:21:14.696Z,6.67
2023-10-09T21:23:44.887Z,6.82
2023-10-09T21:26:21.517Z,7.42
2023-10-09T21:28:50.423Z,8.26
2023-10-09T21:31:20.982Z,9.63
2023-10-09T21:33:50.651Z,8.48
2023-10-09T21:36:19.174Z,7.30
2023-10-09T21:38:48.560Z,7.47
2023-10-09T21:41:19.309Z,7.42
2023-10-09T21:43:48.209Z,6.43
2023-10-09T21:46:16.856Z,6.20
2023-10-09T21:48:45.099Z,6.45
2023-10-09T21:51:17.375Z,6.37
2023-10-09T21:53:45.825Z,6.34
2023-10-09T21:56:16.764Z,6.61
2023-10-09T21:58:44.738Z,6.68
2023-10-09T22:01:13.895Z,7.03
2023-10-09T22:03:42.712Z,6.51
2023-10-09T22:06:11.922Z,6.83
2023-10-09T22:08:40.062Z,7.19
2023-10-09T22:11:08.818Z,7.11
2023-10-09T22:13:38.377Z,7.30
2023-10-09T22:16:06.723Z,7.52
2023-10-09T22:18:41.183Z,11.36
2023-10-09T22:21:12.309Z,6.81
2023-10-09T22:23:46.846Z,6.05
2023-10-09T22:26:16.078Z,6.71
2023-10-09T22:28:47.973Z,10.12
2023-10-09T22:31:17.781Z,8.05
2023-10-09T22:33:51.209Z,6.61
2023-10-09T22:36:28.448Z,6.19
2023-10-09T22:39:06.601Z,6.47
2023-10-09T22:41:35.786Z,6.44
2023-10-09T22:44:11.753Z,6.74
2023-10-09T22:46:41.753Z,6.47
2023-10-09T22:49:15.789Z,6.57
2023-10-09T22:51:51.263Z,6.16
2023-10-09T22:54:24.427Z,6.79
2023-10-09T22:56:54.020Z,6.54
2023-10-09T22:59:28.208Z,6.87
2023-10-09T23:02:00.268Z,7.51
2023-10-09T23:04:38.196Z,7.70
2023-10-09T23:07:15.638Z,7.27
2023-10-09T23:09:51.760Z,7.36
2023-10-09T23:12:26.296Z,7.45
2023-10-09T23:14:57.055Z,7.18
2023-10-09T23:17:45.096Z,7.54
2023-10-09T23:20:20.764Z,15.34
2023-10-09T23:22:51.049Z,12.38
2023-10-09T23:25:31.334Z,8.10
2023-10-09T23:28:13.404Z,6.36
2023-10-09T23:30:44.394Z,7.02
2023-10-09T23:33:21.670Z,6.67
2023-10-09T23:35:56.571Z,6.78
2023-10-09T23:38:33.729Z,6.71
2023-10-09T23:41:05.115Z,7.23
2023-10-09T23:43:34.020Z,6.28
2023-10-09T23:46:09.105Z,7.14
2023-10-09T23:48:39.579Z,7.01
2023-10-09T23:51:13.377Z,7.65
2023-10-09T23:53:47.633Z,7.27
2023-10-09T23:56:35.920Z,7.70
2023-10-09T23:59:12.177Z,7.16
